sensor_id;sensor_type;location;lat;lon;timestamp;P1;durP1;ratioP1;P2;durP2;ratioP2
77222;SDS011;66218;48.928;9.140;2023-06-22T00:01:08;9.70;;;3.55;;
77222;SDS011;66218;48.928;9.140;2023-06-22T00:03:34;8.48;;;3.72;;
77222;SDS011;66218;48.928;9.140;2023-06-22T00:05:59;8.15;;;3.50;;
77222;SDS011;66218;48.928;9.140;2023-06-22T00:08:24;6.17;;;3.63;;
77222;SDS011;66218;48.928;9.140;2023-06-22T00:10:50;7.93;;;3.80;;
77222;SDS011;66218;48.928;9.140;2023-06-22T00:13:15;8.63;;;3.65;;
77222;SDS011;66218;48.928;9.140;2023-06-22T00:15:43;5.53;;;3.42;;
77222;SDS011;66218;48.928;9.140;2023-06-22T00:18:09;10.65;;;3.40;;
77222;SDS011;66218;48.928;9.140;2023-06-22T00:20:35;9.05;;;4.00;;
77222;SDS011;66218;48.928;9.140;2023-06-22T00:23:05;7.22;;;3.30;;
77222;SDS011;66218;48.928;9.140;2023-06-22T00:25:36;8.63;;;4.00;;
77222;SDS011;66218;48.928;9.140;2023-06-22T00:28:03;7.93;;;3.58;;
77222;SDS011;66218;48.928;9.140;2023-06-22T00:30:29;7.95;;;3.75;;
77222;SDS011;66218;48.928;9.140;2023-06-22T00:32:55;9.20;;;3.60;;
77222;SDS011;66218;48.928;9.140;2023-06-22T00:35:21;7.97;;;3.67;;
77222;SDS011;66218;48.928;9.140;2023-06-22T00:37:46;8.20;;;3.75;;
77222;SDS011;66218;48.928;9.140;2023-06-22T00:40:12;6.43;;;3.67;;
77222;SDS011;66218;48.928;9.140;2023-06-22T00:42:38;6.38;;;2.95;;
77222;SDS011;66218;48.928;9.140;2023-06-22T00:45:04;8.30;;;3.45;;
77222;SDS011;66218;48.928;9.140;2023-06-22T00:47:30;6.57;;;3.85;;
77222;SDS011;66218;48.928;9.140;2023-06-22T00:49:57;7.03;;;3.42;;
77222;SDS011;66218;48.928;9.140;2023-06-22T00:52:23;7.75;;;3.97;;
77222;SDS011;66218;48.928;9.140;2023-06-22T00:54:53;9.35;;;4.00;;
77222;SDS011;66218;48.928;9.140;2023-06-22T00:57:20;8.48;;;3.55;;
77222;SDS011;66218;48.928;9.140;2023-06-22T00:59:47;6.85;;;3.65;;
77222;SDS011;66218;48.928;9.140;2023-06-22T01:02:13;8.40;;;3.95;;
77222;SDS011;66218;48.928;9.140;2023-06-22T01:04:39;8.23;;;3.65;;
77222;SDS011;66218;48.928;9.140;2023-06-22T01:09:57;8.43;;;3.53;;
77222;SDS011;66218;48.928;9.140;2023-06-22T01:12:44;7.60;;;3.35;;
77222;SDS011;66218;48.928;9.140;2023-06-22T01:15:18;8.52;;;4.25;;
77222;SDS011;66218;48.928;9.140;2023-06-22T01:17:48;8.63;;;3.75;;
77222;SDS011;66218;48.928;9.140;2023-06-22T01:20:17;7.30;;;3.97;;
77222;SDS011;66218;48.928;9.140;2023-06-22T01:22:46;9.77;;;3.80;;
77222;SDS011;66218;48.928;9.140;2023-06-22T01:25:28;8.55;;;3.85;;
77222;SDS011;66218;48.928;9.140;2023-06-22T01:30:33;9.00;;;4.25;;
77222;SDS011;66218;48.928;9.140;2023-06-22T01:32:59;7.75;;;4.32;;
77222;SDS011;66218;48.928;9.140;2023-06-22T01:35:27;7.88;;;3.70;;
77222;SDS011;66218;48.928;9.140;2023-06-22T01:37:53;8.20;;;3.70;;
77222;SDS011;66218;48.928;9.140;2023-06-22T01:40:20;7.00;;;4.00;;
77222;SDS011;66218;48.928;9.140;2023-06-22T01:42:46;7.35;;;3.38;;
77222;SDS011;66218;48.928;9.140;2023-06-22T01:45:12;10.32;;;3.60;;
77222;SDS011;66218;48.928;9.140;2023-06-22T01:47:38;8.15;;;3.67;;
77222;SDS011;66218;48.928;9.140;2023-06-22T01:50:04;9.25;;;3.90;;
77222;SDS011;66218;48.928;9.140;2023-06-22T01:52:30;8.98;;;4.38;;
77222;SDS011;66218;48.928;9.140;2023-06-22T01:54:58;8.20;;;3.97;;
77222;SDS011;66218;48.928;9.140;2023-06-22T01:57:24;10.43;;;4.32;;
77222;SDS011;66218;48.928;9.140;2023-06-22T02:02:27;7.40;;;4.00;;
77222;SDS011;66218;48.928;9.140;2023-06-22T02:05:08;8.32;;;4.03;;
77222;SDS011;66218;48.928;9.140;2023-06-22T02:07:39;10.57;;;3.95;;
77222;SDS011;66218;48.928;9.140;2023-06-22T02:10:08;8.15;;;4.40;;
77222;SDS011;66218;48.928;9.140;2023-06-22T02:12:37;7.65;;;4.15;;
77222;SDS011;66218;48.928;9.140;2023-06-22T02:15:03;9.70;;;4.07;;
77222;SDS011;66218;48.928;9.140;2023-06-22T02:17:29;9.95;;;4.88;;
77222;SDS011;66218;48.928;9.140;2023-06-22T02:19:58;9.27;;;3.70;;
77222;SDS011;66218;48.928;9.140;2023-06-22T02:22:23;10.15;;;3.85;;
77222;SDS011;66218;48.928;9.140;2023-06-22T02:24:49;9.30;;;4.43;;
77222;SDS011;66218;48.928;9.140;2023-06-22T02:27:14;13.68;;;4.38;;
77222;SDS011;66218;48.928;9.140;2023-06-22T02:29:39;10.57;;;3.78;;
77222;SDS011;66218;48.928;9.140;2023-06-22T02:32:04;9.98;;;4.80;;
77222;SDS011;66218;48.928;9.140;2023-06-22T02:34:31;9.70;;;4.30;;
77222;SDS011;66218;48.928;9.140;2023-06-22T02:36:58;11.52;;;4.68;;
77222;SDS011;66218;48.928;9.140;2023-06-22T02:39:27;9.02;;;3.95;;
77222;SDS011;66218;48.928;9.140;2023-06-22T02:41:53;7.47;;;4.07;;
77222;SDS011;66218;48.928;9.140;2023-06-22T02:44:19;6.85;;;4.03;;
77222;SDS011;66218;48.928;9.140;2023-06-22T02:46:45;6.75;;;3.85;;
77222;SDS011;66218;48.928;9.140;2023-06-22T02:49:11;8.27;;;4.20;;
77222;SDS011;66218;48.928;9.140;2023-06-22T02:51:38;12.30;;;4.32;;
77222;SDS011;66218;48.928;9.140;2023-06-22T02:54:05;9.27;;;4.50;;
77222;SDS011;66218;48.928;9.140;2023-06-22T02:58:56;9.98;;;3.50;;
77222;SDS011;66218;48.928;9.140;2023-06-22T03:01:25;10.00;;;3.78;;
77222;SDS011;66218;48.928;9.140;2023-06-22T03:03:52;7.50;;;3.83;;
77222;SDS011;66218;48.928;9.140;2023-06-22T03:06:18;11.52;;;4.35;;
77222;SDS011;66218;48.928;9.140;2023-06-22T03:08:51;7.53;;;3.63;;
77222;SDS011;66218;48.928;9.140;2023-06-22T03:11:16;11.73;;;4.68;;
77222;SDS011;66218;48.928;9.140;2023-06-22T03:13:42;9.80;;;4.03;;
77222;SDS011;66218;48.928;9.140;2023-06-22T03:18:33;8.23;;;3.37;;
77222;SDS011;66218;48.928;9.140;2023-06-22T03:20:59;6.93;;;3.47;;
77222;SDS011;66218;48.928;9.140;2023-06-22T03:23:25;9.20;;;4.05;;
77222;SDS011;66218;48.928;9.140;2023-06-22T03:25:50;7.30;;;3.95;;
77222;SDS011;66218;48.928;9.140;2023-06-22T03:28:15;7.88;;;4.00;;
77222;SDS011;66218;48.928;9.140;2023-06-22T03:30:41;8.07;;;3.60;;
77222;SDS011;66218;48.928;9.140;2023-06-22T03:33:06;6.88;;;3.55;;
77222;SDS011;66218;48.928;9.140;2023-06-22T03:35:31;7.03;;;3.45;;
77222;SDS011;66218;48.928;9.140;2023-06-22T03:37:57;9.57;;;4.18;;
77222;SDS011;66218;48.928;9.140;2023-06-22T03:40:22;9.38;;;4.47;;
77222;SDS011;66218;48.928;9.140;2023-06-22T03:42:48;9.15;;;4.28;;
77222;SDS011;66218;48.928;9.140;2023-06-22T03:45:13;8.55;;;4.20;;
77222;SDS011;66218;48.928;9.140;2023-06-22T03:47:38;9.20;;;4.45;;
77222;SDS011;66218;48.928;9.140;2023-06-22T03:50:04;8.38;;;4.40;;
77222;SDS011;66218;48.928;9.140;2023-06-22T03:52:30;6.32;;;3.45;;
77222;SDS011;66218;48.928;9.140;2023-06-22T03:54:56;8.30;;;3.45;;
77222;SDS011;66218;48.928;9.140;2023-06-22T03:57:21;6.57;;;3.85;;
77222;SDS011;66218;48.928;9.140;2023-06-22T03:59:46;11.68;;;4.47;;
77222;SDS011;66218;48.928;9.140;2023-06-22T04:02:12;11.20;;;3.75;;
77222;SDS011;66218;48.928;9.140;2023-06-22T04:04:37;7.82;;;3.70;;
77222;SDS011;66218;48.928;9.140;2023-06-22T04:07:04;9.27;;;3.50;;
77222;SDS011;66218;48.928;9.140;2023-06-22T04:09:29;8.35;;;4.38;;
77222;SDS011;66218;48.928;9.140;2023-06-22T04:11:54;11.48;;;4.72;;
77222;SDS011;66218;48.928;9.140;2023-06-22T04:14:20;9.65;;;4.80;;
77222;SDS011;66218;48.928;9.140;2023-06-22T04:16:45;6.75;;;3.63;;
77222;SDS011;66218;48.928;9.140;2023-06-22T04:19:10;7.80;;;4.10;;
77222;SDS011;66218;48.928;9.140;2023-06-22T04:21:41;8.88;;;3.55;;
77222;SDS011;66218;48.928;9.140;2023-06-22T04:24:06;7.93;;;4.55;;
77222;SDS011;66218;48.928;9.140;2023-06-22T04:26:31;9.90;;;4.80;;
77222;SDS011;66218;48.928;9.140;2023-06-22T04:29:01;8.25;;;4.63;;
77222;SDS011;66218;48.928;9.140;2023-06-22T04:31:30;10.48;;;4.00;;
77222;SDS011;66218;48.928;9.140;2023-06-22T04:33:57;7.47;;;4.28;;
77222;SDS011;66218;48.928;9.140;2023-06-22T04:36:22;7.95;;;4.20;;
77222;SDS011;66218;48.928;9.140;2023-06-22T04:38:48;6.80;;;4.00;;
77222;SDS011;66218;48.928;9.140;2023-06-22T04:41:17;9.95;;;4.28;;
77222;SDS011;66218;48.928;9.140;2023-06-22T04:43:48;9.50;;;4.90;;
77222;SDS011;66218;48.928;9.140;2023-06-22T04:46:18;9.52;;;4.07;;
77222;SDS011;66218;48.928;9.140;2023-06-22T04:51:09;9.20;;;3.57;;
77222;SDS011;66218;48.928;9.140;2023-06-22T04:56:00;8.30;;;4.13;;
77222;SDS011;66218;48.928;9.140;2023-06-22T05:00:57;8.23;;;4.00;;
77222;SDS011;66218;48.928;9.140;2023-06-22T05:03:24;8.88;;;4.03;;
77222;SDS011;66218;48.928;9.140;2023-06-22T05:05:51;8.52;;;4.72;;
77222;SDS011;66218;48.928;9.140;2023-06-22T05:08:17;9.23;;;4.43;;
77222;SDS011;66218;48.928;9.140;2023-06-22T05:10:42;8.13;;;4.80;;
77222;SDS011;66218;48.928;9.140;2023-06-22T05:13:08;9.10;;;3.83;;
77222;SDS011;66218;48.928;9.140;2023-06-22T05:15:33;7.75;;;5.05;;
77222;SDS011;66218;48.928;9.140;2023-06-22T05:18:04;9.48;;;5.18;;
77222;SDS011;66218;48.928;9.140;2023-06-22T05:20:30;11.20;;;4.40;;
77222;SDS011;66218;48.928;9.140;2023-06-22T05:22:56;8.90;;;4.65;;
77222;SDS011;66218;48.928;9.140;2023-06-22T05:25:21;9.15;;;4.25;;
77222;SDS011;66218;48.928;9.140;2023-06-22T05:27:46;7.93;;;4.93;;
77222;SDS011;66218;48.928;9.140;2023-06-22T05:30:12;8.57;;;4.35;;
77222;SDS011;66218;48.928;9.140;2023-06-22T05:32:37;7.75;;;4.30;;
77222;SDS011;66218;48.928;9.140;2023-06-22T05:35:03;10.05;;;4.18;;
77222;SDS011;66218;48.928;9.140;2023-06-22T05:37:29;12.35;;;5.35;;
77222;SDS011;66218;48.928;9.140;2023-06-22T05:39:55;9.70;;;5.65;;
77222;SDS011;66218;48.928;9.140;2023-06-22T05:42:20;13.35;;;5.70;;
77222;SDS011;66218;48.928;9.140;2023-06-22T05:44:46;9.20;;;4.25;;
77222;SDS011;66218;48.928;9.140;2023-06-22T05:47:12;9.13;;;4.72;;
77222;SDS011;66218;48.928;9.140;2023-06-22T05:49:37;11.52;;;4.35;;
77222;SDS011;66218;48.928;9.140;2023-06-22T05:52:03;11.20;;;5.45;;
77222;SDS011;66218;48.928;9.140;2023-06-22T05:56:54;9.00;;;4.53;;
77222;SDS011;66218;48.928;9.140;2023-06-22T05:59:19;10.07;;;4.60;;
77222;SDS011;66218;48.928;9.140;2023-06-22T06:01:44;8.05;;;4.35;;
77222;SDS011;66218;48.928;9.140;2023-06-22T06:06:35;12.10;;;4.53;;
77222;SDS011;66218;48.928;9.140;2023-06-22T06:09:05;8.77;;;4.47;;
77222;SDS011;66218;48.928;9.140;2023-06-22T06:11:30;9.52;;;4.22;;
77222;SDS011;66218;48.928;9.140;2023-06-22T06:16:21;8.03;;;3.97;;
77222;SDS011;66218;48.928;9.140;2023-06-22T06:21:14;7.00;;;4.18;;
77222;SDS011;66218;48.928;9.140;2023-06-22T06:26:05;7.77;;;3.93;;
77222;SDS011;66218;48.928;9.140;2023-06-22T06:28:31;8.70;;;4.03;;
77222;SDS011;66218;48.928;9.140;2023-06-22T06:33:22;8.07;;;3.73;;
77222;SDS011;66218;48.928;9.140;2023-06-22T06:35:48;8.70;;;3.65;;
77222;SDS011;66218;48.928;9.140;2023-06-22T06:38:14;6.20;;;3.63;;
77222;SDS011;66218;48.928;9.140;2023-06-22T06:40:39;9.17;;;3.90;;
77222;SDS011;66218;48.928;9.140;2023-06-22T06:43:04;5.70;;;3.28;;
77222;SDS011;66218;48.928;9.140;2023-06-22T06:45:30;9.50;;;3.75;;
77222;SDS011;66218;48.928;9.140;2023-06-22T06:47:57;7.50;;;3.47;;
77222;SDS011;66218;48.928;9.140;2023-06-22T06:50:23;5.40;;;2.95;;
77222;SDS011;66218;48.928;9.140;2023-06-22T06:52:48;6.45;;;3.35;;
77222;SDS011;66218;48.928;9.140;2023-06-22T06:55:15;5.47;;;3.08;;
77222;SDS011;66218;48.928;9.140;2023-06-22T06:57:41;7.75;;;3.78;;
77222;SDS011;66218;48.928;9.140;2023-06-22T07:00:08;6.78;;;2.90;;
77222;SDS011;66218;48.928;9.140;2023-06-22T07:02:40;6.35;;;3.72;;
77222;SDS011;66218;48.928;9.140;2023-06-22T07:05:09;7.75;;;3.35;;
77222;SDS011;66218;48.928;9.140;2023-06-22T07:07:36;10.90;;;4.13;;
77222;SDS011;66218;48.928;9.140;2023-06-22T07:10:01;7.20;;;3.78;;
77222;SDS011;66218;48.928;9.140;2023-06-22T07:12:28;6.78;;;3.70;;
77222;SDS011;66218;48.928;9.140;2023-06-22T07:14:53;7.18;;;3.33;;
77222;SDS011;66218;48.928;9.140;2023-06-22T07:17:18;5.05;;;2.83;;
77222;SDS011;66218;48.928;9.140;2023-06-22T07:19:44;5.60;;;3.20;;
77222;SDS011;66218;48.928;9.140;2023-06-22T07:22:09;5.13;;;3.05;;
77222;SDS011;66218;48.928;9.140;2023-06-22T07:24:34;8.65;;;3.20;;
77222;SDS011;66218;48.928;9.140;2023-06-22T07:27:00;6.13;;;2.70;;
77222;SDS011;66218;48.928;9.140;2023-06-22T07:31:51;7.47;;;3.63;;
77222;SDS011;66218;48.928;9.140;2023-06-22T07:34:17;8.23;;;3.53;;
77222;SDS011;66218;48.928;9.140;2023-06-22T07:39:09;5.00;;;3.08;;
77222;SDS011;66218;48.928;9.140;2023-06-22T07:43:59;6.70;;;2.70;;
77222;SDS011;66218;48.928;9.140;2023-06-22T07:46:24;6.10;;;3.20;;
77222;SDS011;66218;48.928;9.140;2023-06-22T07:48:50;7.75;;;3.63;;
77222;SDS011;66218;48.928;9.140;2023-06-22T07:51:15;7.53;;;3.33;;
77222;SDS011;66218;48.928;9.140;2023-06-22T07:56:07;6.88;;;3.08;;
77222;SDS011;66218;48.928;9.140;2023-06-22T07:58:34;5.38;;;2.85;;
77222;SDS011;66218;48.928;9.140;2023-06-22T08:01:00;4.80;;;2.92;;
77222;SDS011;66218;48.928;9.140;2023-06-22T08:03:25;7.13;;;3.40;;
77222;SDS011;66218;48.928;9.140;2023-06-22T08:05:50;10.48;;;3.20;;
77222;SDS011;66218;48.928;9.140;2023-06-22T08:10:41;6.72;;;2.90;;
77222;SDS011;66218;48.928;9.140;2023-06-22T08:15:32;5.88;;;3.17;;
77222;SDS011;66218;48.928;9.140;2023-06-22T08:20:24;7.10;;;3.03;;
77222;SDS011;66218;48.928;9.140;2023-06-22T08:22:49;6.43;;;3.05;;
77222;SDS011;66218;48.928;9.140;2023-06-22T08:25:14;7.82;;;3.40;;
77222;SDS011;66218;48.928;9.140;2023-06-22T08:27:40;8.35;;;3.42;;
77222;SDS011;66218;48.928;9.140;2023-06-22T08:30:06;6.32;;;2.83;;
77222;SDS011;66218;48.928;9.140;2023-06-22T08:32:32;6.68;;;2.72;;
77222;SDS011;66218;48.928;9.140;2023-06-22T08:34:58;4.55;;;2.75;;
77222;SDS011;66218;48.928;9.140;2023-06-22T08:37:23;8.07;;;3.22;;
77222;SDS011;66218;48.928;9.140;2023-06-22T08:39:55;6.03;;;2.90;;
77222;SDS011;66218;48.928;9.140;2023-06-22T08:42:20;7.30;;;2.90;;
77222;SDS011;66218;48.928;9.140;2023-06-22T08:44:45;6.13;;;2.63;;
77222;SDS011;66218;48.928;9.140;2023-06-22T08:47:11;6.97;;;3.08;;
77222;SDS011;66218;48.928;9.140;2023-06-22T08:49:36;7.60;;;3.25;;
77222;SDS011;66218;48.928;9.140;2023-06-22T08:52:01;5.47;;;2.80;;
77222;SDS011;66218;48.928;9.140;2023-06-22T08:54:27;6.57;;;3.55;;
77222;SDS011;66218;48.928;9.140;2023-06-22T08:56:52;4.97;;;3.25;;
77222;SDS011;66218;48.928;9.140;2023-06-22T08:59:17;6.30;;;3.00;;
77222;SDS011;66218;48.928;9.140;2023-06-22T09:01:43;5.90;;;3.35;;
77222;SDS011;66218;48.928;9.140;2023-06-22T09:04:10;5.47;;;2.85;;
77222;SDS011;66218;48.928;9.140;2023-06-22T09:06:36;7.93;;;3.13;;
77222;SDS011;66218;48.928;9.140;2023-06-22T09:09:06;7.20;;;3.03;;
77222;SDS011;66218;48.928;9.140;2023-06-22T09:11:31;9.25;;;2.97;;
77222;SDS011;66218;48.928;9.140;2023-06-22T09:13:57;5.30;;;2.95;;
77222;SDS011;66218;48.928;9.140;2023-06-22T09:16:22;6.10;;;3.15;;
77222;SDS011;66218;48.928;9.140;2023-06-22T09:18:48;6.78;;;3.05;;
77222;SDS011;66218;48.928;9.140;2023-06-22T09:21:13;5.47;;;2.75;;
77222;SDS011;66218;48.928;9.140;2023-06-22T09:23:39;6.85;;;3.33;;
77222;SDS011;66218;48.928;9.140;2023-06-22T09:26:04;5.25;;;2.92;;
77222;SDS011;66218;48.928;9.140;2023-06-22T09:28:30;5.68;;;3.40;;
77222;SDS011;66218;48.928;9.140;2023-06-22T09:30:56;7.05;;;3.50;;
77222;SDS011;66218;48.928;9.140;2023-06-22T09:33:23;7.97;;;2.92;;
77222;SDS011;66218;48.928;9.140;2023-06-22T09:35:49;6.18;;;2.83;;
77222;SDS011;66218;48.928;9.140;2023-06-22T09:38:15;7.05;;;3.30;;
77222;SDS011;66218;48.928;9.140;2023-06-22T09:40:41;7.55;;;3.47;;
77222;SDS011;66218;48.928;9.140;2023-06-22T09:43:06;5.85;;;3.22;;
77222;SDS011;66218;48.928;9.140;2023-06-22T09:45:32;6.22;;;3.00;;
77222;SDS011;66218;48.928;9.140;2023-06-22T09:47:57;6.88;;;3.40;;
77222;SDS011;66218;48.928;9.140;2023-06-22T09:50:22;5.22;;;3.15;;
77222;SDS011;66218;48.928;9.140;2023-06-22T09:52:47;9.13;;;3.40;;
77222;SDS011;66218;48.928;9.140;2023-06-22T09:55:15;7.90;;;3.20;;
77222;SDS011;66218;48.928;9.140;2023-06-22T09:57:41;8.48;;;3.35;;
77222;SDS011;66218;48.928;9.140;2023-06-22T10:00:06;7.47;;;3.15;;
77222;SDS011;66218;48.928;9.140;2023-06-22T10:02:37;7.10;;;3.10;;
77222;SDS011;66218;48.928;9.140;2023-06-22T10:05:02;6.53;;;3.17;;
77222;SDS011;66218;48.928;9.140;2023-06-22T10:07:28;5.28;;;2.60;;
77222;SDS011;66218;48.928;9.140;2023-06-22T10:09:53;6.18;;;3.17;;
77222;SDS011;66218;48.928;9.140;2023-06-22T10:12:18;8.05;;;3.63;;
77222;SDS011;66218;48.928;9.140;2023-06-22T10:14:44;7.57;;;3.28;;
77222;SDS011;66218;48.928;9.140;2023-06-22T10:17:09;6.85;;;3.10;;
77222;SDS011;66218;48.928;9.140;2023-06-22T10:19:34;6.28;;;2.88;;
77222;SDS011;66218;48.928;9.140;2023-06-22T10:22:02;6.95;;;3.35;;
77222;SDS011;66218;48.928;9.140;2023-06-22T10:24:28;5.72;;;3.10;;
77222;SDS011;66218;48.928;9.140;2023-06-22T10:26:54;6.07;;;3.13;;
77222;SDS011;66218;48.928;9.140;2023-06-22T10:29:19;6.53;;;3.47;;
77222;SDS011;66218;48.928;9.140;2023-06-22T10:31:45;7.55;;;3.63;;
77222;SDS011;66218;48.928;9.140;2023-06-22T10:34:10;10.20;;;3.90;;
77222;SDS011;66218;48.928;9.140;2023-06-22T10:36:35;7.30;;;2.60;;
77222;SDS011;66218;48.928;9.140;2023-06-22T10:39:01;9.85;;;3.17;;
77222;SDS011;66218;48.928;9.140;2023-06-22T10:41:27;5.72;;;2.80;;
77222;SDS011;66218;48.928;9.140;2023-06-22T10:43:55;7.88;;;3.05;;
77222;SDS011;66218;48.928;9.140;2023-06-22T10:46:20;8.50;;;3.72;;
77222;SDS011;66218;48.928;9.140;2023-06-22T10:48:46;6.53;;;2.78;;
77222;SDS011;66218;48.928;9.140;2023-06-22T10:51:11;8.77;;;4.18;;
77222;SDS011;66218;48.928;9.140;2023-06-22T10:53:36;8.18;;;3.17;;
77222;SDS011;66218;48.928;9.140;2023-06-22T10:56:01;8.93;;;3.00;;
77222;SDS011;66218;48.928;9.140;2023-06-22T10:58:27;5.90;;;2.72;;
77222;SDS011;66218;48.928;9.140;2023-06-22T11:00:52;9.05;;;3.78;;
77222;SDS011;66218;48.928;9.140;2023-06-22T11:03:17;8.43;;;3.53;;
77222;SDS011;66218;48.928;9.140;2023-06-22T11:05:43;7.70;;;3.33;;
77222;SDS011;66218;48.928;9.140;2023-06-22T11:08:08;6.88;;;3.28;;
77222;SDS011;66218;48.928;9.140;2023-06-22T11:10:33;6.80;;;3.25;;
77222;SDS011;66218;48.928;9.140;2023-06-22T11:12:59;6.95;;;3.25;;
77222;SDS011;66218;48.928;9.140;2023-06-22T11:15:24;5.55;;;3.42;;
77222;SDS011;66218;48.928;9.140;2023-06-22T11:17:50;5.53;;;2.92;;
77222;SDS011;66218;48.928;9.140;2023-06-22T11:20:15;6.68;;;3.35;;
77222;SDS011;66218;48.928;9.140;2023-06-22T11:22:41;5.90;;;3.15;;
77222;SDS011;66218;48.928;9.140;2023-06-22T11:25:07;5.28;;;2.78;;
77222;SDS011;66218;48.928;9.140;2023-06-22T11:27:32;7.25;;;2.70;;
77222;SDS011;66218;48.928;9.140;2023-06-22T11:29:58;8.00;;;3.75;;
77222;SDS011;66218;48.928;9.140;2023-06-22T11:32:23;6.55;;;2.60;;
77222;SDS011;66218;48.928;9.140;2023-06-22T11:34:49;5.60;;;2.95;;
77222;SDS011;66218;48.928;9.140;2023-06-22T11:37:14;9.25;;;3.15;;
77222;SDS011;66218;48.928;9.140;2023-06-22T11:39:40;8.35;;;3.20;;
77222;SDS011;66218;48.928;9.140;2023-06-22T11:42:06;8.05;;;3.17;;
77222;SDS011;66218;48.928;9.140;2023-06-22T11:44:32;6.47;;;3.17;;
77222;SDS011;66218;48.928;9.140;2023-06-22T11:46:57;7.10;;;3.22;;
77222;SDS011;66218;48.928;9.140;2023-06-22T11:49:22;7.78;;;3.10;;
77222;SDS011;66218;48.928;9.140;2023-06-22T11:51:48;8.73;;;3.13;;
77222;SDS011;66218;48.928;9.140;2023-06-22T11:54:13;7.40;;;3.35;;
77222;SDS011;66218;48.928;9.140;2023-06-22T11:56:38;8.23;;;2.78;;
77222;SDS011;66218;48.928;9.140;2023-06-22T11:59:04;6.82;;;3.50;;
77222;SDS011;66218;48.928;9.140;2023-06-22T12:01:30;8.55;;;3.40;;
77222;SDS011;66218;48.928;9.140;2023-06-22T12:03:57;4.60;;;3.00;;
77222;SDS011;66218;48.928;9.140;2023-06-22T12:06:23;9.75;;;3.22;;
77222;SDS011;66218;48.928;9.140;2023-06-22T12:08:48;5.85;;;2.67;;
77222;SDS011;66218;48.928;9.140;2023-06-22T12:11:13;9.52;;;3.08;;
77222;SDS011;66218;48.928;9.140;2023-06-22T12:13:38;12.15;;;3.08;;
77222;SDS011;66218;48.928;9.140;2023-06-22T12:16:04;6.78;;;3.08;;
77222;SDS011;66218;48.928;9.140;2023-06-22T12:18:29;7.43;;;2.97;;
77222;SDS011;66218;48.928;9.140;2023-06-22T12:20:55;6.37;;;2.63;;
77222;SDS011;66218;48.928;9.140;2023-06-22T12:23:20;7.68;;;3.38;;
77222;SDS011;66218;48.928;9.140;2023-06-22T12:25:47;7.75;;;2.70;;
77222;SDS011;66218;48.928;9.140;2023-06-22T12:28:13;6.68;;;2.90;;
77222;SDS011;66218;48.928;9.140;2023-06-22T12:30:38;8.88;;;3.28;;
77222;SDS011;66218;48.928;9.140;2023-06-22T12:33:04;10.52;;;3.22;;
77222;SDS011;66218;48.928;9.140;2023-06-22T12:35:29;6.65;;;3.13;;
77222;SDS011;66218;48.928;9.140;2023-06-22T12:37:54;6.43;;;2.78;;
77222;SDS011;66218;48.928;9.140;2023-06-22T12:40:20;7.00;;;3.10;;
77222;SDS011;66218;48.928;9.140;2023-06-22T12:42:45;8.20;;;3.20;;
77222;SDS011;66218;48.928;9.140;2023-06-22T12:45:11;10.68;;;3.60;;
77222;SDS011;66218;48.928;9.140;2023-06-22T12:47:36;8.60;;;3.08;;
77222;SDS011;66218;48.928;9.140;2023-06-22T12:50:02;6.20;;;3.05;;
77222;SDS011;66218;48.928;9.140;2023-06-22T12:52:29;9.00;;;3.28;;
77222;SDS011;66218;48.928;9.140;2023-06-22T12:54:55;7.90;;;3.10;;
77222;SDS011;66218;48.928;9.140;2023-06-22T12:57:21;11.10;;;3.53;;
77222;SDS011;66218;48.928;9.140;2023-06-22T12:59:46;7.40;;;3.15;;
77222;SDS011;66218;48.928;9.140;2023-06-22T13:02:11;6.78;;;3.10;;
77222;SDS011;66218;48.928;9.140;2023-06-22T13:04:37;10.48;;;3.38;;
77222;SDS011;66218;48.928;9.140;2023-06-22T13:07:02;8.75;;;3.17;;
77222;SDS011;66218;48.928;9.140;2023-06-22T13:09:27;7.32;;;3.03;;
77222;SDS011;66218;48.928;9.140;2023-06-22T13:11:53;7.63;;;3.15;;
77222;SDS011;66218;48.928;9.140;2023-06-22T13:14:18;5.75;;;2.55;;
77222;SDS011;66218;48.928;9.140;2023-06-22T13:16:43;8.35;;;2.75;;
77222;SDS011;66218;48.928;9.140;2023-06-22T13:19:09;7.75;;;3.00;;
77222;SDS011;66218;48.928;9.140;2023-06-22T13:21:34;6.40;;;3.15;;
77222;SDS011;66218;48.928;9.140;2023-06-22T13:24:01;8.43;;;2.90;;
77222;SDS011;66218;48.928;9.140;2023-06-22T13:26:26;12.00;;;3.80;;
77222;SDS011;66218;48.928;9.140;2023-06-22T13:28:53;7.88;;;3.33;;
77222;SDS011;66218;48.928;9.140;2023-06-22T13:31:19;10.10;;;3.70;;
77222;SDS011;66218;48.928;9.140;2023-06-22T13:33:44;6.75;;;3.20;;
77222;SDS011;66218;48.928;9.140;2023-06-22T13:36:12;6.93;;;3.33;;
77222;SDS011;66218;48.928;9.140;2023-06-22T13:38:38;7.70;;;3.47;;
77222;SDS011;66218;48.928;9.140;2023-06-22T13:41:09;6.65;;;2.78;;
77222;SDS011;66218;48.928;9.140;2023-06-22T13:43:35;8.15;;;3.42;;
77222;SDS011;66218;48.928;9.140;2023-06-22T13:46:00;9.25;;;3.65;;
77222;SDS011;66218;48.928;9.140;2023-06-22T13:48:25;11.23;;;3.77;;
77222;SDS011;66218;48.928;9.140;2023-06-22T13:50:51;6.13;;;3.25;;
77222;SDS011;66218;48.928;9.140;2023-06-22T13:53:17;9.32;;;4.00;;
77222;SDS011;66218;48.928;9.140;2023-06-22T13:55:42;9.20;;;3.35;;
77222;SDS011;66218;48.928;9.140;2023-06-22T13:58:07;10.65;;;3.47;;
77222;SDS011;66218;48.928;9.140;2023-06-22T14:00:33;7.00;;;3.58;;
77222;SDS011;66218;48.928;9.140;2023-06-22T14:02:58;8.77;;;3.57;;
77222;SDS011;66218;48.928;9.140;2023-06-22T14:05:23;8.98;;;3.15;;
77222;SDS011;66218;48.928;9.140;2023-06-22T14:07:49;6.95;;;3.30;;
77222;SDS011;66218;48.928;9.140;2023-06-22T14:10:14;10.10;;;4.15;;
77222;SDS011;66218;48.928;9.140;2023-06-22T14:12:39;9.02;;;3.35;;
77222;SDS011;66218;48.928;9.140;2023-06-22T14:15:05;7.82;;;3.80;;
77222;SDS011;66218;48.928;9.140;2023-06-22T14:17:30;11.70;;;3.38;;
77222;SDS011;66218;48.928;9.140;2023-06-22T14:19:56;11.45;;;4.00;;
77222;SDS011;66218;48.928;9.140;2023-06-22T14:22:22;8.93;;;3.90;;
77222;SDS011;66218;48.928;9.140;2023-06-22T14:24:47;7.95;;;3.00;;
77222;SDS011;66218;48.928;9.140;2023-06-22T14:27:13;6.75;;;3.17;;
77222;SDS011;66218;48.928;9.140;2023-06-22T14:29:38;5.72;;;3.05;;
77222;SDS011;66218;48.928;9.140;2023-06-22T14:32:03;7.85;;;3.30;;
77222;SDS011;66218;48.928;9.140;2023-06-22T14:34:31;6.30;;;3.38;;
77222;SDS011;66218;48.928;9.140;2023-06-22T14:36:57;7.85;;;3.70;;
77222;SDS011;66218;48.928;9.140;2023-06-22T14:39:22;8.20;;;5.03;;
77222;SDS011;66218;48.928;9.140;2023-06-22T14:41:47;9.38;;;3.33;;
77222;SDS011;66218;48.928;9.140;2023-06-22T14:44:13;9.98;;;3.70;;
77222;SDS011;66218;48.928;9.140;2023-06-22T14:46:38;10.73;;;3.42;;
77222;SDS011;66218;48.928;9.140;2023-06-22T14:49:03;9.60;;;4.22;;
77222;SDS011;66218;48.928;9.140;2023-06-22T14:51:28;7.57;;;4.00;;
77222;SDS011;66218;48.928;9.140;2023-06-22T14:53:54;5.72;;;2.42;;
77222;SDS011;66218;48.928;9.140;2023-06-22T14:56:19;6.30;;;3.10;;
77222;SDS011;66218;48.928;9.140;2023-06-22T14:58:45;5.72;;;2.60;;
77222;SDS011;66218;48.928;9.140;2023-06-22T15:01:11;7.07;;;2.30;;
77222;SDS011;66218;48.928;9.140;2023-06-22T15:03:37;7.13;;;2.05;;
77222;SDS011;66218;48.928;9.140;2023-06-22T15:06:03;5.32;;;1.85;;
77222;SDS011;66218;48.928;9.140;2023-06-22T15:08:28;5.75;;;1.85;;
77222;SDS011;66218;48.928;9.140;2023-06-22T15:10:54;5.82;;;1.88;;
77222;SDS011;66218;48.928;9.140;2023-06-22T15:13:20;10.88;;;2.60;;
77222;SDS011;66218;48.928;9.140;2023-06-22T15:15:47;5.47;;;2.15;;
77222;SDS011;66218;48.928;9.140;2023-06-22T15:18:13;6.90;;;2.17;;
77222;SDS011;66218;48.928;9.140;2023-06-22T15:20:39;4.50;;;1.63;;
77222;SDS011;66218;48.928;9.140;2023-06-22T15:23:05;5.40;;;1.65;;
77222;SDS011;66218;48.928;9.140;2023-06-22T15:25:31;3.88;;;1.70;;
77222;SDS011;66218;48.928;9.140;2023-06-22T15:27:56;5.55;;;2.03;;
77222;SDS011;66218;48.928;9.140;2023-06-22T15:30:21;4.47;;;1.40;;